sensor_id;sensor_type;location;lat;lon;timestamp;pressure;altitude;pressure_sealevel;temperature;humidity
32733;BME280;11867;51.198;11.966;2023-04-26T00:00:50;100470.09;;;7.42;75.85
32733;BME280;11867;51.198;11.966;2023-04-26T00:01:53;100468.78;;;7.50;75.46
32733;BME280;11867;51.198;11.966;2023-04-26T00:02:55;100469.88;;;7.22;76.21
32733;BME280;11867;51.198;11.966;2023-04-26T00:03:57;100473.13;;;6.97;77.94
32733;BME280;11867;51.198;11.966;2023-04-26T00:04:59;100469.72;;;7.06;77.71
32733;BME280;11867;51.198;11.966;2023-04-26T00:06:03;100471.41;;;7.13;76.94
32733;BME280;11867;51.198;11.966;2023-04-26T00:07:09;100466.44;;;7.32;76.14
32733;BME280;11867;51.198;11.966;2023-04-26T00:08:13;100470.69;;;7.22;75.89
32733;BME280;11867;51.198;11.966;2023-04-26T00:09:15;100474.84;;;7.30;75.86
32733;BME280;11867;51.198;11.966;2023-04-26T00:10:18;100470.13;;;7.20;75.93
32733;BME280;11867;51.198;11.966;2023-04-26T00:11:20;100473.44;;;7.27;76.04
32733;BME280;11867;51.198;11.966;2023-04-26T00:12:23;100472.84;;;7.47;75.68
32733;BME280;11867;51.198;11.966;2023-04-26T00:13:24;100473.41;;;7.50;75.19
32733;BME280;11867;51.198;11.966;2023-04-26T00:14:27;100480.88;;;7.37;75.10
32733;BME280;11867;51.198;11.966;2023-04-26T00:15:29;100477.91;;;7.39;75.11
32733;BME280;11867;51.198;11.966;2023-04-26T00:16:33;100473.00;;;7.36;75.48
32733;BME280;11867;51.198;11.966;2023-04-26T00:17:35;100477.16;;;7.16;76.38
32733;BME280;11867;51.198;11.966;2023-04-26T00:18:37;100476.16;;;7.27;75.97
32733;BME280;11867;51.198;11.966;2023-04-26T00:19:39;100477.66;;;7.40;75.23
32733;BME280;11867;51.198;11.966;2023-04-26T00:20:42;100476.53;;;7.36;75.29
32733;BME280;11867;51.198;11.966;2023-04-26T00:21:43;100477.56;;;7.03;76.42
32733;BME280;11867;51.198;11.966;2023-04-26T00:22:46;100473.88;;;6.92;77.22
32733;BME280;11867;51.198;11.966;2023-04-26T00:23:48;100477.63;;;6.64;77.85
32733;BME280;11867;51.198;11.966;2023-04-26T00:24:50;100473.19;;;6.80;77.40
32733;BME280;11867;51.198;11.966;2023-04-26T00:25:52;100473.19;;;7.02;77.15
32733;BME280;11867;51.198;11.966;2023-04-26T00:26:54;100484.16;;;7.12;76.56
32733;BME280;11867;51.198;11.966;2023-04-26T00:27:56;100474.06;;;7.07;76.97
32733;BME280;11867;51.198;11.966;2023-04-26T00:28:58;100474.66;;;7.37;75.81
32733;BME280;11867;51.198;11.966;2023-04-26T00:30:00;100475.91;;;7.56;75.02
32733;BME280;11867;51.198;11.966;2023-04-26T00:31:03;100478.59;;;7.51;74.86
32733;BME280;11867;51.198;11.966;2023-04-26T00:32:06;100476.22;;;7.60;74.65
32733;BME280;11867;51.198;11.966;2023-04-26T00:33:08;100483.31;;;7.66;73.97
32733;BME280;11867;51.198;11.966;2023-04-26T00:34:10;100474.28;;;7.55;74.42
32733;BME280;11867;51.198;11.966;2023-04-26T00:35:12;100474.41;;;7.38;74.82
32733;BME280;11867;51.198;11.966;2023-04-26T00:36:14;100474.19;;;7.18;75.48
32733;BME280;11867;51.198;11.966;2023-04-26T00:37:19;100473.88;;;7.14;75.93
32733;BME280;11867;51.198;11.966;2023-04-26T00:38:21;100477.97;;;7.17;75.85
32733;BME280;11867;51.198;11.966;2023-04-26T00:39:24;100486.16;;;7.22;75.72
32733;BME280;11867;51.198;11.966;2023-04-26T00:40:25;100482.56;;;7.43;75.07
32733;BME280;11867;51.198;11.966;2023-04-26T00:41:28;100483.66;;;7.15;75.95
32733;BME280;11867;51.198;11.966;2023-04-26T00:42:31;100477.78;;;7.01;76.72
32733;BME280;11867;51.198;11.966;2023-04-26T00:43:33;100482.00;;;6.92;76.97
32733;BME280;11867;51.198;11.966;2023-04-26T00:44:35;100488.31;;;6.76;77.94
32733;BME280;11867;51.198;11.966;2023-04-26T00:45:40;100480.13;;;6.71;77.85
32733;BME280;11867;51.198;11.966;2023-04-26T00:46:42;100474.84;;;6.81;78.33
32733;BME280;11867;51.198;11.966;2023-04-26T00:47:46;100485.25;;;6.89;77.67
32733;BME280;11867;51.198;11.966;2023-04-26T00:48:47;100491.66;;;7.05;76.17
32733;BME280;11867;51.198;11.966;2023-04-26T00:49:50;100487.19;;;7.16;76.13
32733;BME280;11867;51.198;11.966;2023-04-26T00:50:52;100487.41;;;7.36;75.88
32733;BME280;11867;51.198;11.966;2023-04-26T00:51:55;100482.78;;;6.87;76.55
32733;BME280;11867;51.198;11.966;2023-04-26T00:52:57;100485.44;;;6.82;77.07
32733;BME280;11867;51.198;11.966;2023-04-26T00:54:00;100485.25;;;6.89;77.14
32733;BME280;11867;51.198;11.966;2023-04-26T00:55:02;100482.25;;;7.13;76.85
32733;BME280;11867;51.198;11.966;2023-04-26T00:56:05;100484.22;;;7.17;76.04
32733;BME280;11867;51.198;11.966;2023-04-26T00:57:08;100484.97;;;7.13;76.35
32733;BME280;11867;51.198;11.966;2023-04-26T00:58:12;100486.81;;;7.07;75.76
32733;BME280;11867;51.198;11.966;2023-04-26T00:59:13;100487.88;;;7.06;75.57
32733;BME280;11867;51.198;11.966;2023-04-26T01:00:16;100495.69;;;7.24;75.61
32733;BME280;11867;51.198;11.966;2023-04-26T01:01:17;100502.13;;;7.18;75.76
32733;BME280;11867;51.198;11.966;2023-04-26T01:02:20;100491.38;;;7.28;75.41
32733;BME280;11867;51.198;11.966;2023-04-26T01:03:24;100490.00;;;7.26;75.29
32733;BME280;11867;51.198;11.966;2023-04-26T01:04:27;100496.09;;;7.38;74.87
32733;BME280;11867;51.198;11.966;2023-04-26T01:05:30;100491.88;;;7.25;74.34
32733;BME280;11867;51.198;11.966;2023-04-26T01:06:34;100498.06;;;7.21;74.54
32733;BME280;11867;51.198;11.966;2023-04-26T01:07:36;100496.28;;;6.82;75.51
32733;BME280;11867;51.198;11.966;2023-04-26T01:08:39;100499.72;;;6.78;75.83
32733;BME280;11867;51.198;11.966;2023-04-26T01:09:41;100496.19;;;6.77;76.14
32733;BME280;11867;51.198;11.966;2023-04-26T01:10:46;100495.19;;;6.83;75.70
32733;BME280;11867;51.198;11.966;2023-04-26T01:11:47;100495.50;;;7.09;74.88
32733;BME280;11867;51.198;11.966;2023-04-26T01:12:51;100497.69;;;7.34;73.92
32733;BME280;11867;51.198;11.966;2023-04-26T01:13:52;100502.91;;;7.19;73.96
32733;BME280;11867;51.198;11.966;2023-04-26T01:14:55;100502.25;;;7.06;73.92
32733;BME280;11867;51.198;11.966;2023-04-26T01:15:57;100498.66;;;6.79;75.37
32733;BME280;11867;51.198;11.966;2023-04-26T01:17:00;100502.19;;;6.79;74.90
32733;BME280;11867;51.198;11.966;2023-04-26T01:18:03;100501.63;;;6.99;74.72
32733;BME280;11867;51.198;11.966;2023-04-26T01:19:08;100499.72;;;7.00;74.54
32733;BME280;11867;51.198;11.966;2023-04-26T01:20:12;100497.84;;;7.00;74.35
32733;BME280;11867;51.198;11.966;2023-04-26T01:21:18;100500.31;;;7.29;73.63
32733;BME280;11867;51.198;11.966;2023-04-26T01:22:21;100496.69;;;7.45;72.88
32733;BME280;11867;51.198;11.966;2023-04-26T01:23:25;100505.81;;;7.34;72.90
32733;BME280;11867;51.198;11.966;2023-04-26T01:24:26;100503.25;;;7.50;72.62
32733;BME280;11867;51.198;11.966;2023-04-26T01:25:29;100505.41;;;7.47;72.57
32733;BME280;11867;51.198;11.966;2023-04-26T01:26:31;100501.16;;;7.57;72.29
32733;BME280;11867;51.198;11.966;2023-04-26T01:27:33;100499.28;;;7.62;71.86
32733;BME280;11867;51.198;11.966;2023-04-26T01:28:35;100498.25;;;7.63;71.61
32733;BME280;11867;51.198;11.966;2023-04-26T01:29:37;100503.19;;;7.72;71.15
32733;BME280;11867;51.198;11.966;2023-04-26T01:30:39;100503.03;;;7.56;71.51
32733;BME280;11867;51.198;11.966;2023-04-26T01:31:41;100502.09;;;7.40;72.08
32733;BME280;11867;51.198;11.966;2023-04-26T01:32:43;100497.78;;;7.44;71.82
32733;BME280;11867;51.198;11.966;2023-04-26T01:33:46;100502.63;;;7.15;72.70
32733;BME280;11867;51.198;11.966;2023-04-26T01:34:47;100493.41;;;7.16;73.29
32733;BME280;11867;51.198;11.966;2023-04-26T01:35:50;100501.31;;;6.96;73.94
32733;BME280;11867;51.198;11.966;2023-04-26T01:36:51;100498.16;;;7.04;73.78
32733;BME280;11867;51.198;11.966;2023-04-26T01:37:54;100496.25;;;7.04;73.54
32733;BME280;11867;51.198;11.966;2023-04-26T01:38:57;100493.97;;;6.96;73.87
32733;BME280;11867;51.198;11.966;2023-04-26T01:40:00;100490.13;;;6.92;74.07
32733;BME280;11867;51.198;11.966;2023-04-26T01:41:01;100497.16;;;6.66;74.43
32733;BME280;11867;51.198;11.966;2023-04-26T01:42:04;100497.13;;;6.27;76.48
32733;BME280;11867;51.198;11.966;2023-04-26T01:43:06;100500.19;;;6.31;76.88
32733;BME280;11867;51.198;11.966;2023-04-26T01:44:08;100496.59;;;6.64;76.10
32733;BME280;11867;51.198;11.966;2023-04-26T01:45:10;100492.16;;;6.80;75.50
32733;BME280;11867;51.198;11.966;2023-04-26T01:46:12;100502.13;;;6.96;75.12
32733;BME280;11867;51.198;11.966;2023-04-26T01:47:14;100499.09;;;6.71;75.21
32733;BME280;11867;51.198;11.966;2023-04-26T01:48:16;100497.19;;;6.71;75.90
32733;BME280;11867;51.198;11.966;2023-04-26T01:49:18;100502.00;;;6.86;75.06
32733;BME280;11867;51.198;11.966;2023-04-26T01:50:20;100495.13;;;7.00;75.00
32733;BME280;11867;51.198;11.966;2023-04-26T01:51:22;100502.19;;;7.01;74.86
32733;BME280;11867;51.198;11.966;2023-04-26T01:52:24;100495.00;;;7.12;74.30
32733;BME280;11867;51.198;11.966;2023-04-26T01:53:26;100497.34;;;7.03;73.95
32733;BME280;11867;51.198;11.966;2023-04-26T01:54:30;100495.50;;;6.87;74.99
32733;BME280;11867;51.198;11.966;2023-04-26T01:55:32;100497.34;;;6.81;75.04
32733;BME280;11867;51.198;11.966;2023-04-26T01:56:35;100499.72;;;6.78;75.52
32733;BME280;11867;51.198;11.966;2023-04-26T01:57:36;100493.72;;;6.76;75.68
32733;BME280;11867;51.198;11.966;2023-04-26T01:58:39;100506.72;;;6.74;75.98
32733;BME280;11867;51.198;11.966;2023-04-26T01:59:40;100499.56;;;6.45;76.97
32733;BME280;11867;51.198;11.966;2023-04-26T02:00:42;100499.03;;;6.26;78.06
32733;BME280;11867;51.198;11.966;2023-04-26T02:01:44;100495.34;;;6.16;77.65
32733;BME280;11867;51.198;11.966;2023-04-26T02:02:47;100499.00;;;5.93;79.11
32733;BME280;11867;51.198;11.966;2023-04-26T02:03:48;100503.69;;;5.97;79.02
32733;BME280;11867;51.198;11.966;2023-04-26T02:04:51;100501.16;;;6.07;78.89
32733;BME280;11867;51.198;11.966;2023-04-26T02:05:53;100497.56;;;6.02;79.34
32733;BME280;11867;51.198;11.966;2023-04-26T02:06:55;100498.81;;;5.65;80.03
32733;BME280;11867;51.198;11.966;2023-04-26T02:07:57;100503.25;;;5.55;80.94
32733;BME280;11867;51.198;11.966;2023-04-26T02:08:59;100505.34;;;4.95;83.08
32733;BME280;11867;51.198;11.966;2023-04-26T02:10:03;100508.53;;;4.92;84.19
32733;BME280;11867;51.198;11.966;2023-04-26T02:11:05;100504.19;;;5.32;83.54
32733;BME280;11867;51.198;11.966;2023-04-26T02:12:07;100504.22;;;5.49;82.50
32733;BME280;11867;51.198;11.966;2023-04-26T02:13:09;100510.06;;;5.29;82.80
32733;BME280;11867;51.198;11.966;2023-04-26T02:14:11;100502.56;;;5.47;82.32
32733;BME280;11867;51.198;11.966;2023-04-26T02:15:13;100507.16;;;5.47;82.14
32733;BME280;11867;51.198;11.966;2023-04-26T02:16:15;100508.56;;;5.21;83.61
32733;BME280;11867;51.198;11.966;2023-04-26T02:17:18;100506.88;;;5.32;83.22
32733;BME280;11867;51.198;11.966;2023-04-26T02:18:21;100505.88;;;5.21;83.49
32733;BME280;11867;51.198;11.966;2023-04-26T02:19:24;100508.63;;;5.38;82.88
32733;BME280;11867;51.198;11.966;2023-04-26T02:20:26;100506.19;;;5.70;82.12
32733;BME280;11867;51.198;11.966;2023-04-26T02:21:28;100508.09;;;5.86;81.31
32733;BME280;11867;51.198;11.966;2023-04-26T02:22:30;100507.28;;;5.69;81.16
32733;BME280;11867;51.198;11.966;2023-04-26T02:23:33;100508.84;;;5.82;80.97
32733;BME280;11867;51.198;11.966;2023-04-26T02:24:35;100509.81;;;5.76;80.92
32733;BME280;11867;51.198;11.966;2023-04-26T02:25:38;100507.31;;;5.40;82.03
32733;BME280;11867;51.198;11.966;2023-04-26T02:26:40;100512.19;;;5.26;82.87
32733;BME280;11867;51.198;11.966;2023-04-26T02:27:42;100508.94;;;5.41;82.94
32733;BME280;11867;51.198;11.966;2023-04-26T02:28:44;100504.41;;;5.59;82.26
32733;BME280;11867;51.198;11.966;2023-04-26T02:29:46;100507.91;;;5.59;81.90
32733;BME280;11867;51.198;11.966;2023-04-26T02:30:48;100508.66;;;5.55;81.89
32733;BME280;11867;51.198;11.966;2023-04-26T02:31:51;100516.56;;;5.73;81.17
32733;BME280;11867;51.198;11.966;2023-04-26T02:32:52;100518.94;;;5.86;80.57
32733;BME280;11867;51.198;11.966;2023-04-26T02:33:55;100521.03;;;5.96;80.41
32733;BME280;11867;51.198;11.966;2023-04-26T02:34:57;100514.94;;;5.89;80.26
32733;BME280;11867;51.198;11.966;2023-04-26T02:36:01;100517.81;;;5.54;81.30
32733;BME280;11867;51.198;11.966;2023-04-26T02:37:03;100517.50;;;5.50;81.90
32733;BME280;11867;51.198;11.966;2023-04-26T02:38:06;100516.97;;;5.36;81.93
32733;BME280;11867;51.198;11.966;2023-04-26T02:39:07;100519.94;;;5.52;82.18
32733;BME280;11867;51.198;11.966;2023-04-26T02:40:10;100514.97;;;5.60;81.98
32733;BME280;11867;51.198;11.966;2023-04-26T02:41:13;100508.94;;;5.41;81.91
32733;BME280;11867;51.198;11.966;2023-04-26T02:42:15;100514.88;;;5.26;82.10
32733;BME280;11867;51.198;11.966;2023-04-26T02:43:17;100509.88;;;4.78;84.74
32733;BME280;11867;51.198;11.966;2023-04-26T02:44:20;100509.22;;;4.47;85.87
32733;BME280;11867;51.198;11.966;2023-04-26T02:45:21;100516.13;;;4.43;86.59
32733;BME280;11867;51.198;11.966;2023-04-26T02:46:24;100505.31;;;4.31;87.23
32733;BME280;11867;51.198;11.966;2023-04-26T02:47:26;100510.50;;;4.44;86.94
32733;BME280;11867;51.198;11.966;2023-04-26T02:48:28;100510.38;;;4.28;87.58
32733;BME280;11867;51.198;11.966;2023-04-26T02:49:30;100513.53;;;4.60;86.83
32733;BME280;11867;51.198;11.966;2023-04-26T02:50:32;100505.28;;;4.67;86.37
32733;BME280;11867;51.198;11.966;2023-04-26T02:51:34;100503.91;;;4.64;85.89
32733;BME280;11867;51.198;11.966;2023-04-26T02:52:36;100503.16;;;4.92;85.55
32733;BME280;11867;51.198;11.966;2023-04-26T02:53:38;100503.72;;;4.94;85.02
32733;BME280;11867;51.198;11.966;2023-04-26T02:54:40;100501.81;;;5.07;84.29
32733;BME280;11867;51.198;11.966;2023-04-26T02:55:42;100500.34;;;5.16;83.98
32733;BME280;11867;51.198;11.966;2023-04-26T02:56:45;100501.59;;;4.96;83.51
32733;BME280;11867;51.198;11.966;2023-04-26T02:57:47;100498.63;;;4.98;84.42
32733;BME280;11867;51.198;11.966;2023-04-26T02:58:49;100501.50;;;5.20;83.50
32733;BME280;11867;51.198;11.966;2023-04-26T02:59:52;100500.66;;;5.02;83.74
32733;BME280;11867;51.198;11.966;2023-04-26T03:00:55;100502.28;;;5.03;83.40
32733;BME280;11867;51.198;11.966;2023-04-26T03:02:01;100505.22;;;5.02;83.54
32733;BME280;11867;51.198;11.966;2023-04-26T03:03:04;100502.78;;;4.89;83.99
32733;BME280;11867;51.198;11.966;2023-04-26T03:04:06;100507.16;;;4.78;84.20
32733;BME280;11867;51.198;11.966;2023-04-26T03:05:09;100499.22;;;4.36;86.17
32733;BME280;11867;51.198;11.966;2023-04-26T03:06:10;100498.16;;;3.90;87.85
32733;BME280;11867;51.198;11.966;2023-04-26T03:07:13;100506.88;;;3.50;90.56
32733;BME280;11867;51.198;11.966;2023-04-26T03:08:15;100497.44;;;3.82;90.57
32733;BME280;11867;51.198;11.966;2023-04-26T03:09:17;100505.66;;;4.11;89.30
32733;BME280;11867;51.198;11.966;2023-04-26T03:10:19;100503.66;;;3.83;88.89
32733;BME280;11867;51.198;11.966;2023-04-26T03:11:22;100510.00;;;3.47;90.63
32733;BME280;11867;51.198;11.966;2023-04-26T03:12:25;100505.38;;;3.66;91.46
32733;BME280;11867;51.198;11.966;2023-04-26T03:13:27;100507.19;;;3.95;90.21
32733;BME280;11867;51.198;11.966;2023-04-26T03:14:29;100510.13;;;4.17;89.45
32733;BME280;11867;51.198;11.966;2023-04-26T03:15:31;100510.56;;;3.79;89.28
32733;BME280;11867;51.198;11.966;2023-04-26T03:16:39;100510.31;;;3.69;90.62
32733;BME280;11867;51.198;11.966;2023-04-26T03:17:42;100508.06;;;3.66;90.15
32733;BME280;11867;51.198;11.966;2023-04-26T03:18:44;100507.69;;;3.50;91.15
32733;BME280;11867;51.198;11.966;2023-04-26T03:19:46;100509.03;;;3.29;92.07
32733;BME280;11867;51.198;11.966;2023-04-26T03:20:48;100508.97;;;2.99;93.64
32733;BME280;11867;51.198;11.966;2023-04-26T03:21:50;100516.09;;;2.93;94.47
32733;BME280;11867;51.198;11.966;2023-04-26T03:22:52;100507.38;;;2.79;94.76
32733;BME280;11867;51.198;11.966;2023-04-26T03:23:54;100499.94;;;2.75;95.50
32733;BME280;11867;51.198;11.966;2023-04-26T03:24:56;100506.16;;;2.57;96.38
32733;BME280;11867;51.198;11.966;2023-04-26T03:25:58;100512.53;;;2.44;97.04
32733;BME280;11867;51.198;11.966;2023-04-26T03:27:00;100508.41;;;2.60;97.18
32733;BME280;11867;51.198;11.966;2023-04-26T03:28:04;100515.94;;;2.51;97.08
32733;BME280;11867;51.198;11.966;2023-04-26T03:29:05;100513.94;;;2.65;96.62
32733;BME280;11867;51.198;11.966;2023-04-26T03:30:09;100515.34;;;2.49;96.94
32733;BME280;11867;51.198;11.966;2023-04-26T03:31:11;100513.56;;;2.43;97.28
32733;BME280;11867;51.198;11.966;2023-04-26T03:32:13;100512.88;;;2.48;97.48
32733;BME280;11867;51.198;11.966;2023-04-26T03:33:15;100514.97;;;2.64;97.08
32733;BME280;11867;51.198;11.966;2023-04-26T03:34:17;100514.31;;;2.69;96.42
32733;BME280;11867;51.198;11.966;2023-04-26T03:35:19;100516.84;;;2.63;96.21
32733;BME280;11867;51.198;11.966;2023-04-26T03:36:22;100522.69;;;2.42;96.78
32733;BME280;11867;51.198;11.966;2023-04-26T03:37:24;100526.28;;;2.73;96.31
32733;BME280;11867;51.198;11.966;2023-04-26T03:38:26;100516.84;;;2.82;95.94
32733;BME280;11867;51.198;11.966;2023-04-26T03:39:28;100524.16;;;3.12;94.91
32733;BME280;11867;51.198;11.966;2023-04-26T03:40:30;100518.72;;;3.00;93.75
32733;BME280;11867;51.198;11.966;2023-04-26T03:41:33;100522.31;;;2.94;93.45
32733;BME280;11867;51.198;11.966;2023-04-26T03:42:37;100522.47;;;2.62;95.08
32733;BME280;11867;51.198;11.966;2023-04-26T03:43:41;100522.97;;;2.71;95.48
32733;BME280;11867;51.198;11.966;2023-04-26T03:44:43;100524.63;;;2.53;95.32
32733;BME280;11867;51.198;11.966;2023-04-26T03:45:46;100524.47;;;2.30;96.80
32733;BME280;11867;51.198;11.966;2023-04-26T03:46:49;100520.56;;;2.26;98.05
32733;BME280;11867;51.198;11.966;2023-04-26T03:47:51;100516.88;;;2.20;98.41
32733;BME280;11867;51.198;11.966;2023-04-26T03:48:53;100523.84;;;2.28;98.63
32733;BME280;11867;51.198;11.966;2023-04-26T03:49:55;100521.16;;;2.28;98.51
32733;BME280;11867;51.198;11.966;2023-04-26T03:50:57;100523.84;;;2.28;97.66
32733;BME280;11867;51.198;11.966;2023-04-26T03:51:59;100527.81;;;2.43;97.52
32733;BME280;11867;51.198;11.966;2023-04-26T03:53:01;100519.63;;;2.57;96.21
32733;BME280;11867;51.198;11.966;2023-04-26T03:54:04;100524.03;;;2.70;95.20
32733;BME280;11867;51.198;11.966;2023-04-26T03:55:07;100519.94;;;2.67;94.33
32733;BME280;11867;51.198;11.966;2023-04-26T03:56:12;100525.16;;;2.80;94.64
32733;BME280;11867;51.198;11.966;2023-04-26T03:57:13;100523.53;;;2.98;93.18
32733;BME280;11867;51.198;11.966;2023-04-26T03:58:16;100514.75;;;3.02;92.61
32733;BME280;11867;51.198;11.966;2023-04-26T03:59:19;100515.78;;;2.83;92.15
32733;BME280;11867;51.198;11.966;2023-04-26T04:00:25;100517.16;;;2.74;92.49
32733;BME280;11867;51.198;11.966;2023-04-26T04:01:26;100518.56;;;2.58;93.34
32733;BME280;11867;51.198;11.966;2023-04-26T04:02:29;100522.72;;;2.60;94.40
32733;BME280;11867;51.198;11.966;2023-04-26T04:03:31;100518.72;;;2.45;94.76
32733;BME280;11867;51.198;11.966;2023-04-26T04:04:34;100517.63;;;2.52;95.00
32733;BME280;11867;51.198;11.966;2023-04-26T04:05:37;100517.50;;;2.40;94.82
32733;BME280;11867;51.198;11.966;2023-04-26T04:06:40;100516.09;;;2.38;95.18
32733;BME280;11867;51.198;11.966;2023-04-26T04:07:42;100519.97;;;2.24;95.90
32733;BME280;11867;51.198;11.966;2023-04-26T04:08:44;100514.50;;;2.30;96.22
32733;BME280;11867;51.198;11.966;2023-04-26T04:09:46;100520.88;;;2.73;94.91
32733;BME280;11867;51.198;11.966;2023-04-26T04:10:49;100526.81;;;2.63;94.12
32733;BME280;11867;51.198;11.966;2023-04-26T04:11:51;100522.41;;;2.50;94.05
32733;BME280;11867;51.198;11.966;2023-04-26T04:12:53;100526.25;;;2.36;95.12
32733;BME280;11867;51.198;11.966;2023-04-26T04:13:55;100521.88;;;2.16;96.15
32733;BME280;11867;51.198;11.966;2023-04-26T04:14:59;100519.28;;;2.28;96.22
32733;BME280;11867;51.198;11.966;2023-04-26T04:16:00;100524.75;;;2.21;96.08
32733;BME280;11867;51.198;11.966;2023-04-26T04:17:03;100523.72;;;2.41;95.71
32733;BME280;11867;51.198;11.966;2023-04-26T04:18:04;100528.16;;;2.72;94.80
32733;BME280;11867;51.198;11.966;2023-04-26T04:19:07;100520.97;;;2.85;94.02
32733;BME280;11867;51.198;11.966;2023-04-26T04:20:10;100525.53;;;3.02;93.18
32733;BME280;11867;51.198;11.966;2023-04-26T04:21:13;100531.47;;;3.23;91.51
32733;BME280;11867;51.198;11.966;2023-04-26T04:22:14;100525.59;;;3.44;90.37
32733;BME280;11867;51.198;11.966;2023-04-26T04:23:16;100532.22;;;3.60;89.38
32733;BME280;11867;51.198;11.966;2023-04-26T04:24:18;100526.91;;;3.54;88.73
32733;BME280;11867;51.198;11.966;2023-04-26T04:25:21;100522.06;;;3.74;88.43
32733;BME280;11867;51.198;11.966;2023-04-26T04:26:23;100531.34;;;3.78;87.51
32733;BME280;11867;51.198;11.966;2023-04-26T04:27:26;100534.16;;;3.83;87.73
32733;BME280;11867;51.198;11.966;2023-04-26T04:28:27;100529.97;;;3.57;87.41
32733;BME280;11867;51.198;11.966;2023-04-26T04:29:30;100527.03;;;3.59;87.90
32733;BME280;11867;51.198;11.966;2023-04-26T04:30:33;100528.16;;;3.81;87.80
32733;BME280;11867;51.198;11.966;2023-04-26T04:31:35;100539.59;;;3.65;87.94
32733;BME280;11867;51.198;11.966;2023-04-26T04:32:37;100532.63;;;3.46;88.78
32733;BME280;11867;51.198;11.966;2023-04-26T04:33:40;100530.31;;;3.31;89.56
32733;BME280;11867;51.198;11.966;2023-04-26T04:34:42;100531.94;;;3.50;89.35
32733;BME280;11867;51.198;11.966;2023-04-26T04:35:45;100536.84;;;3.53;88.98
32733;BME280;11867;51.198;11.966;2023-04-26T04:36:46;100538.97;;;3.51;89.39
32733;BME280;11867;51.198;11.966;2023-04-26T04:37:49;100537.72;;;3.54;89.14
32733;BME280;11867;51.198;11.966;2023-04-26T04:38:51;100540.34;;;3.72;88.77
32733;BME280;11867;51.198;11.966;2023-04-26T04:39:55;100547.66;;;3.95;87.97
32733;BME280;11867;51.198;11.966;2023-04-26T04:40:56;100544.16;;;4.07;87.23
32733;BME280;11867;51.198;11.966;2023-04-26T04:41:59;100553.66;;;3.97;87.30
32733;BME280;11867;51.198;11.966;2023-04-26T04:43:01;100550.00;;;3.92;87.14
32733;BME280;11867;51.198;11.966;2023-04-26T04:44:05;100552.00;;;3.96;87.60
32733;BME280;11867;51.198;11.966;2023-04-26T04:45:07;100548.41;;;4.14;86.51
32733;BME280;11867;51.198;11.966;2023-04-26T04:46:11;100548.53;;;4.31;85.56
32733;BME280;11867;51.198;11.966;2023-04-26T04:47:13;100556.16;;;4.46;85.26
32733;BME280;11867;51.198;11.966;2023-04-26T04:48:16;100552.97;;;4.14;85.58
32733;BME280;11867;51.198;11.966;2023-04-26T04:49:18;100553.56;;;3.74;87.27
32733;BME280;11867;51.198;11.966;2023-04-26T04:50:21;100566.88;;;3.57;88.55
32733;BME280;11867;51.198;11.966;2023-04-26T04:51:24;100555.88;;;3.89;88.50
32733;BME280;11867;51.198;11.966;2023-04-26T04:52:26;100554.13;;;4.06;87.79
32733;BME280;11867;51.198;11.966;2023-04-26T04:53:29;100563.09;;;4.30;87.16
32733;BME280;11867;51.198;11.966;2023-04-26T04:54:31;100562.50;;;4.52;85.79
32733;BME280;11867;51.198;11.966;2023-04-26T04:55:33;100557.78;;;4.71;85.37
32733;BME280;11867;51.198;11.966;2023-04-26T04:56:35;100560.97;;;4.56;84.31
32733;BME280;11867;51.198;11.966;2023-04-26T04:57:37;100560.72;;;4.45;84.99
32733;BME280;11867;51.198;11.966;2023-04-26T04:58:42;100562.50;;;4.63;85.05
32733;BME280;11867;51.198;11.966;2023-04-26T04:59:44;100568.81;;;4.34;85.52
32733;BME280;11867;51.198;11.966;2023-04-26T05:00:46;100565.03;;;4.11;86.97
32733;BME280;11867;51.198;11.966;2023-04-26T05:01:50;100566.13;;;4.34;86.73
32733;BME280;11867;51.198;11.966;2023-04-26T05:02:51;100568.94;;;4.39;85.58
32733;BME280;11867;51.198;11.966;2023-04-26T05:03:54;100557.81;;;4.47;86.18
32733;BME280;11867;51.198;11.966;2023-04-26T05:04:56;100567.16;;;4.21;86.08
32733;BME280;11867;51.198;11.966;2023-04-26T05:05:59;100565.06;;;4.35;85.26
32733;BME280;11867;51.198;11.966;2023-04-26T05:07:01;100568.13;;;4.38;85.08
32733;BME280;11867;51.198;11.966;2023-04-26T05:08:04;100570.59;;;4.52;84.78
32733;BME280;11867;51.198;11.966;2023-04-26T05:09:08;100566.63;;;4.42;84.40
32733;BME280;11867;51.198;11.966;2023-04-26T05:10:11;100568.13;;;4.50;84.23
32733;BME280;11867;51.198;11.966;2023-04-26T05:11:14;100565.19;;;4.52;84.35
32733;BME280;11867;51.198;11.966;2023-04-26T05:12:15;100571.50;;;4.69;83.93
32733;BME280;11867;51.198;11.966;2023-04-26T05:13:17;100571.06;;;4.84;83.25
32733;BME280;11867;51.198;11.966;2023-04-26T05:14:20;100571.28;;;4.82;82.90
32733;BME280;11867;51.198;11.966;2023-04-26T05:15:22;100572.81;;;4.78;82.70
32733;BME280;11867;51.198;11.966;2023-04-26T05:16:24;100572.09;;;4.71;83.23
32733;BME280;11867;51.198;11.966;2023-04-26T05:17:27;100569.75;;;4.75;83.20
32733;BME280;11867;51.198;11.966;2023-04-26T05:18:31;100575.53;;;4.55;83.55
32733;BME280;11867;51.198;11.966;2023-04-26T05:19:32;100576.22;;;4.62;83.95
32733;BME280;11867;51.198;11.966;2023-04-26T05:20:35;100574.47;;;4.68;84.12
32733;BME280;11867;51.198;11.966;2023-04-26T05:21:36;100570.78;;;4.85;83.25
32733;BME280;11867;51.198;11.966;2023-04-26T05:22:39;100577.84;;;4.87;82.35
32733;BME280;11867;51.198;11.966;2023-04-26T05:23:41;100581.16;;;4.77;83.17
32733;BME280;11867;51.198;11.966;2023-04-26T05:24:44;100579.19;;;4.49;84.02
32733;BME280;11867;51.198;11.966;2023-04-26T05:25:46;100578.22;;;4.31;84.70
32733;BME280;11867;51.198;11.966;2023-04-26T05:26:49;100579.75;;;4.39;85.02